Foxy 3 — WDH4123 — position and weather

sailwx.info

Track history (hours):
 
Tides and Currents Weather Stations Pressure Air Temp Water Temp Dewpoint Dewpoint Depression Visibility Wind Speed Wind Dir Waves Ship Positions

Foxy 3

Owner: Fox Marine Corporation, Easton, PA. More information available from US FCC via Universal Licensing System and Coast Guard Vessel Documentation Center.

Last reported at 2018-Jun-17 17:58 UTC. Time now 2018-Jun-19 18:22 UTC.
Position N 40°39' W 074°05'.

MMSI: 367614410.

Date/timePositionNaut miles runAvg speedWind from/ knotsBaromVisibWave heightAir tempDewpointWater temp
2018-Jun-17 17:58N 40°39' W 074°05'3 7.3
2018-Jun-17 17:30N 40°40' W 074°01'1 1.8
2018-Jun-17 17:00N 40°40' W 073°60'2 3.8
2018-Jun-17 16:30N 40°40' W 074°02'2 3.7
2018-Jun-17 15:56N 40°41' W 074°05'1 1.6
2018-Jun-17 15:29N 40°41' W 074°04'2 4.8
2018-Jun-17 15:00N 40°40' W 074°01'1 1.1
2018-Jun-17 14:00N 40°40' W 073°60'6 0.2
2018-Jun-16 02:56N 40°39' W 074°07'3 5.0
2018-Jun-16 02:16N 40°38' W 074°12'0 0.1
2018-Jun-16 02:00N 40°38' W 074°12'2 3.6
2018-Jun-16 01:27N 40°39' W 074°09'3 5.7
2018-Jun-16 01:00N 40°39' W 074°06'2 4.7
2018-Jun-16 00:30N 40°38' W 074°03'3 5.2
2018-Jun-15 23:56N 40°35' W 074°01'45 4.3
2018-Jun-15 13:28N 39°50' W 074°04'3 4.2
2018-Jun-15 12:48N 39°48' W 074°03'1 4.5
2018-Jun-15 12:29N 39°46' W 074°03'2 4.6
2018-Jun-15 11:57N 39°44' W 074°03'2 4.0
2018-Jun-15 11:30N 39°42' W 074°04'2 3.8
2018-Jun-15 11:00N 39°40' W 074°05'2 4.2
2018-Jun-15 10:27N 39°38' W 074°06'2 4.3
2018-Jun-15 09:52N 39°36' W 074°08'2 4.1
2018-Jun-15 09:22N 39°34' W 074°09'2 4.1
2018-Jun-15 09:00N 39°33' W 074°10'10 4.0
2018-Jun-15 06:22N 39°25' W 074°18'2 3.9
2018-Jun-15 05:57N 39°23' W 074°19'2 3.9
2018-Jun-15 05:30N 39°22' W 074°21'2 4.1
2018-Jun-15 05:00N 39°21' W 074°23'2 4.1
2018-Jun-15 04:31N 39°19' W 074°25'2 4.2
2018-Jun-15 04:00N 39°18' W 074°27'2 4.1
2018-Jun-15 03:30N 39°17' W 074°29'2 4.1
2018-Jun-15 03:01N 39°15' W 074°31'2 4.4
2018-Jun-15 02:30N 39°14' W 074°33'2 4.3
2018-Jun-15 02:00N 39°12' W 074°35'2 4.1
2018-Jun-15 01:29N 39°10' W 074°37'2 4.0
2018-Jun-15 00:59N 39°09' W 074°38'25 3.0
2018-Jun-14 16:39N 39°04' W 075°10'1 5.2
2018-Jun-14 16:24N 39°05' W 075°11'2 4.7
2018-Jun-14 15:55N 39°07' W 075°13'2 4.4
2018-Jun-14 15:30N 39°09' W 075°14'2 3.9
2018-Jun-14 15:00N 39°10' W 075°16'2 3.2
2018-Jun-14 14:30N 39°12' W 075°17'1 2.6
2018-Jun-14 14:00N 39°13' W 075°18'1 2.9
2018-Jun-14 13:30N 39°14' W 075°18'1 2.9
2018-Jun-14 13:00N 39°15' W 075°20'1 1.9
2018-Jun-14 12:30N 39°16' W 075°21'2 3.7
2018-Jun-14 12:00N 39°17' W 075°22'2 4.9
2018-Jun-14 11:30N 39°19' W 075°24'3 5.8
2018-Jun-14 11:00N 39°21' W 075°27'4 7.1
2018-Jun-14 10:30N 39°24' W 075°30'3 7.0
2018-Jun-14 10:00N 39°26' W 075°33'3 6.7
2018-Jun-14 09:30N 39°30' W 075°34'4 7.1
2018-Jun-14 09:00N 39°33' W 075°33'4 7.2
2018-Jun-14 08:30N 39°36' W 075°34'3 6.2
2018-Jun-14 08:00N 39°39' W 075°33'3 6.5
2018-Jun-14 07:30N 39°42' W 075°31'3 5.7
2018-Jun-14 07:00N 39°45' W 075°30'2 4.7
2018-Jun-14 06:30N 39°47' W 075°28'2 4.0
2018-Jun-14 06:00N 39°48' W 075°26'2 3.6
2018-Jun-14 05:30N 39°49' W 075°24'1 2.2
2018-Jun-14 05:00N 39°50' W 075°23'0 0.3
2018-Jun-14 04:30N 39°50' W 075°23'0 0.1
2018-Jun-14 04:00N 39°50' W 075°23'0 0.0
2018-Jun-14 03:30N 39°50' W 075°23'0 0.0
2018-Jun-14 03:00N 39°50' W 075°23'0 0.0
2018-Jun-14 02:30N 39°50' W 075°23'0 0.0
2018-Jun-14 02:01N 39°50' W 075°23'0 0.0
2018-Jun-14 01:30N 39°50' W 075°23'0 0.0
2018-Jun-14 01:00N 39°50' W 075°23'0 0.0
2018-Jun-14 00:30N 39°50' W 075°23'0 0.0
2018-Jun-14 00:00N 39°50' W 075°23'0 0.0
2018-Jun-13 23:30N 39°50' W 075°23'0 0.0
2018-Jun-13 23:00N 39°50' W 075°23'0 0.0
2018-Jun-13 22:30N 39°50' W 075°23'0 0.0
2018-Jun-13 22:00N 39°50' W 075°23'0 0.1
2018-Jun-13 21:30N 39°50' W 075°23'0 0.0
2018-Jun-13 21:00N 39°50' W 075°23'0 0.0
2018-Jun-13 20:30N 39°50' W 075°23'0 0.0
2018-Jun-13 20:00N 39°50' W 075°23'0 0.0
2018-Jun-13 19:30N 39°50' W 075°23'0 0.0
2018-Jun-13 19:00N 39°50' W 075°23'0 0.0
2018-Jun-13 18:30N 39°50' W 075°23'1 2.1
2018-Jun-13 18:00N 39°50' W 075°22'0 0.5
2018-Jun-13 17:30N 39°50' W 075°22'0 0.1
2018-Jun-13 17:00N 39°50' W 075°22'0 0.1
2018-Jun-13 16:30N 39°50' W 075°22'0 0.0
2018-Jun-13 16:00N 39°50' W 075°22'0 0.0
2018-Jun-13 15:30N 39°50' W 075°22'0 0.0
2018-Jun-13 15:00N 39°50' W 075°22'0 0.0
2018-Jun-13 14:30N 39°50' W 075°22'0 0.0
2018-Jun-13 14:00N 39°50' W 075°22'0 0.0
2018-Jun-13 13:30N 39°50' W 075°22'0 0.0
2018-Jun-13 13:00N 39°50' W 075°22'0 0.0
2018-Jun-13 12:30N 39°50' W 075°22'0 0.0
2018-Jun-13 12:00N 39°50' W 075°22'0 0.0
2018-Jun-13 11:30N 39°50' W 075°22'0 0.0
2018-Jun-13 11:00N 39°50' W 075°22'0 0.0
2018-Jun-13 10:30N 39°50' W 075°22'0 0.0
2018-Jun-13 10:00N 39°50' W 075°22'0 0.0
2018-Jun-13 09:30N 39°50' W 075°22'0 0.0
2018-Jun-13 09:00N 39°50' W 075°22'0 0.0
2018-Jun-13 08:30N 39°50' W 075°22'0 0.0
2018-Jun-13 08:00N 39°50' W 075°22'0 0.0
2018-Jun-13 07:30N 39°50' W 075°22'0 0.0
2018-Jun-13 07:00N 39°50' W 075°22'0 0.0
2018-Jun-13 06:30N 39°50' W 075°22'0 0.0
2018-Jun-13 06:00N 39°50' W 075°22'0 0.0
2018-Jun-13 05:30N 39°50' W 075°22'0 0.0
2018-Jun-13 05:00N 39°50' W 075°22'0 0.0
2018-Jun-13 04:30N 39°50' W 075°22'0 0.0
2018-Jun-13 04:00N 39°50' W 075°22'0 0.0
2018-Jun-13 03:30N 39°50' W 075°22'0 0.0
2018-Jun-13 03:00N 39°50' W 075°22'1 2.5
2018-Jun-13 02:30N 39°50' W 075°23'0 0.0
2018-Jun-13 02:00N 39°50' W 075°23'0 0.0
2018-Jun-13 01:30N 39°50' W 075°23'0 0.0
2018-Jun-13 01:00N 39°50' W 075°23'1 1.9
2018-Jun-13 00:30N 39°50' W 075°22'0 0.8
2018-Jun-13 00:00N 39°50' W 075°22'0 0.0
2018-Jun-12 23:30N 39°50' W 075°22'0 0.0
2018-Jun-12 23:00N 39°50' W 075°22'0 0.0
2018-Jun-12 22:30N 39°50' W 075°22'0 0.0
2018-Jun-12 22:00N 39°50' W 075°22'0 0.0
2018-Jun-12 21:30N 39°50' W 075°22'0 0.0
2018-Jun-12 21:00N 39°50' W 075°22'0 0.0
2018-Jun-12 20:30N 39°50' W 075°22'0 0.0
2018-Jun-12 20:00N 39°50' W 075°22'0 0.0
2018-Jun-12 19:30N 39°50' W 075°22'0 0.0
2018-Jun-12 19:00N 39°50' W 075°22'0 0.0
2018-Jun-12 18:30N 39°50' W 075°22'0 0.0
2018-Jun-12 18:00N 39°50' W 075°22'0 0.0
2018-Jun-12 17:30N 39°50' W 075°22'0 0.0
2018-Jun-12 17:00N 39°50' W 075°22'0 0.0
2018-Jun-12 16:30N 39°50' W 075°22'0 0.0
2018-Jun-12 16:00N 39°50' W 075°22'0 0.0
2018-Jun-12 15:30N 39°50' W 075°22'0 0.0
2018-Jun-12 15:00N 39°50' W 075°22'0 0.0
2018-Jun-12 14:31N 39°50' W 075°22'0 0.0
2018-Jun-12 14:00N 39°50' W 075°22'0 0.0
2018-Jun-12 13:31N 39°50' W 075°22'0 0.0
2018-Jun-12 13:01N 39°50' W 075°22'0 0.0
2018-Jun-12 12:30N 39°50' W 075°22'0 0.0
2018-Jun-12 12:00N 39°50' W 075°22'0 0.0
2018-Jun-12 11:30N 39°50' W 075°22'0 0.0
2018-Jun-12 11:00N 39°50' W 075°22'0 0.0
2018-Jun-12 10:30N 39°50' W 075°22'0 0.0
2018-Jun-12 10:00N 39°50' W 075°22'0 0.0
2018-Jun-12 09:31N 39°50' W 075°22'0 0.0
2018-Jun-12 09:01N 39°50' W 075°22'0 0.0
2018-Jun-12 08:31N 39°50' W 075°22'0 0.0
2018-Jun-12 08:00N 39°50' W 075°22'0 0.0
2018-Jun-12 07:31N 39°50' W 075°22'0 0.0
2018-Jun-12 07:01N 39°50' W 075°22'0 0.0
2018-Jun-12 06:30N 39°50' W 075°22'0 0.0
2018-Jun-12 06:00N 39°50' W 075°22'0 0.0
2018-Jun-12 05:31N 39°50' W 075°22'0 0.0
2018-Jun-12 05:00N 39°50' W 075°22'0 0.0
2018-Jun-12 04:30N 39°50' W 075°22'0 0.0
2018-Jun-12 04:00N 39°50' W 075°22'0 0.0
2018-Jun-12 03:30N 39°50' W 075°22'0 0.0
2018-Jun-12 03:01N 39°50' W 075°22'0 0.0
2018-Jun-12 02:30N 39°50' W 075°22'0 0.0
2018-Jun-12 02:00N 39°50' W 075°22'0 0.0
2018-Jun-12 01:30N 39°50' W 075°22'0 0.0
2018-Jun-12 01:00N 39°50' W 075°22'0 0.0
2018-Jun-12 00:30N 39°50' W 075°22'0 0.0
2018-Jun-12 00:00N 39°50' W 075°22'0 0.0
2018-Jun-11 23:30N 39°50' W 075°22'0 0.0
2018-Jun-11 23:00N 39°50' W 075°22'0 0.0
2018-Jun-11 22:30N 39°50' W 075°22'0 0.0
2018-Jun-11 22:00N 39°50' W 075°22'0 0.0
2018-Jun-11 21:30N 39°50' W 075°22'0 0.0
2018-Jun-11 21:00N 39°50' W 075°22'0 0.0
2018-Jun-11 20:30N 39°50' W 075°22'0 0.0
2018-Jun-11 20:01N 39°50' W 075°22'0 0.0
2018-Jun-11 19:30N 39°50' W 075°22'0 0.0
2018-Jun-11 19:00N 39°50' W 075°22'0 0.0
2018-Jun-11 18:30N 39°50' W 075°22'0 0.0
2018-Jun-11 18:00N 39°50' W 075°22'0 0.0
2018-Jun-11 17:30N 39°50' W 075°22'0 0.0
2018-Jun-11 17:00N 39°50' W 075°22'0 0.0
2018-Jun-11 16:30N 39°50' W 075°22'0 0.0
2018-Jun-11 16:00N 39°50' W 075°22'0 0.0
2018-Jun-11 15:30N 39°50' W 075°22'0 0.0
2018-Jun-11 15:00N 39°50' W 075°22'0 0.0
2018-Jun-11 14:30N 39°50' W 075°22'0 0.0
2018-Jun-11 14:00N 39°50' W 075°22'0 0.0
2018-Jun-11 13:30N 39°50' W 075°22'0 0.0
2018-Jun-11 13:00N 39°50' W 075°22'0 0.0
2018-Jun-11 12:30N 39°50' W 075°22'0 0.0
2018-Jun-11 11:59N 39°50' W 075°22'0 0.0
2018-Jun-11 11:30N 39°50' W 075°22'1 2.5
2018-Jun-11 11:00N 39°50' W 075°23'0 0.0
2018-Jun-11 10:31N 39°50' W 075°23'0 0.0
2018-Jun-11 10:00N 39°50' W 075°23'0 0.0
2018-Jun-11 09:30N 39°50' W 075°23'0 0.0
2018-Jun-11 09:00N 39°50' W 075°23'0 0.0
2018-Jun-11 08:30N 39°50' W 075°23'0 0.0
2018-Jun-11 08:00N 39°50' W 075°23'0 0.0
2018-Jun-11 07:30N 39°50' W 075°23'0 0.0
2018-Jun-11 07:00N 39°50' W 075°23'0 0.0
2018-Jun-11 06:30N 39°50' W 075°23'0 0.0
2018-Jun-11 06:00N 39°50' W 075°23'0 0.0
2018-Jun-11 05:30N 39°50' W 075°23'0 0.0
2018-Jun-11 05:00N 39°50' W 075°23'0 0.0
2018-Jun-11 04:30N 39°50' W 075°23'0 0.0
2018-Jun-11 04:00N 39°50' W 075°23'0 0.0
2018-Jun-11 03:30N 39°50' W 075°23'0 0.0
2018-Jun-11 03:00N 39°50' W 075°23'2 3.8
2018-Jun-11 02:26N 39°48' W 075°25'3 6.0
2018-Jun-11 01:55N 39°46' W 075°28'2 4.7
2018-Jun-11 01:27N 39°44' W 075°30'4 8.2
2018-Jun-11 01:00N 39°41' W 075°31'1 2.5
2018-Jun-11 00:30N 39°40' W 075°32'4 7.8
2018-Jun-11 00:00N 39°36' W 075°34'4 8.5
2018-Jun-10 23:29N 39°32' W 075°33'915.0
2018-Jun-10 22:53N 39°23' W 075°29'3 6.2
2018-Jun-10 22:27N 39°21' W 075°27'510.7
2018-Jun-10 21:56N 39°17' W 075°22'4 8.1
2018-Jun-10 21:30N 39°15' W 075°19'4 6.4
2018-Jun-10 20:55N 39°12' W 075°16'56 4.9
2018-Jun-10 09:28N 39°34' W 074°10'3 6.9
2018-Jun-10 08:59N 39°37' W 074°09'4 6.8
2018-Jun-10 08:25N 39°41' W 074°07'53 6.9
2018-Jun-10 00:48N 40°33' W 074°01'2 8.1
2018-Jun-10 00:30N 40°36' W 074°02'4 7.7
2018-Jun-10 00:00N 40°39' W 074°05'1 0.0
2018-Jun-07 21:16N 40°39' W 074°05'2 7.3
2018-Jun-07 21:00N 40°40' W 074°03'3 5.3
2018-Jun-07 20:30N 40°40' W 073°60'0 0.2
2018-Jun-07 20:00N 40°41' W 073°60'0 0.1
2018-Jun-07 19:30N 40°40' W 073°60'1 2.5
2018-Jun-07 19:00N 40°40' W 074°01'3 5.6
2018-Jun-07 18:30N 40°41' W 074°04'  
Track history (hours):
 
Tides and Currents Weather Stations Pressure Air Temp Water Temp Dewpoint Dewpoint Depression Visibility Wind Speed Wind Dir Waves Ship Positions

Foxy 3

Owner: Fox Marine Corporation, Easton, PA. More information available from US FCC via Universal Licensing System and Coast Guard Vessel Documentation Center.

Last reported at 2018-Jun-17 17:58 UTC. Time now 2018-Jun-19 18:22 UTC.
Position N 40°39' W 074°05'.

MMSI: 367614410.

Date/timePositionNaut miles runAvg speedWind from/ knotsBaromVisibWave heightAir tempDewpointWater temp
2018-Jun-17 17:58N 40°39' W 074°05'3 7.3
2018-Jun-17 17:30N 40°40' W 074°01'1 1.8
2018-Jun-17 17:00N 40°40' W 073°60'2 3.8
2018-Jun-17 16:30N 40°40' W 074°02'2 3.7
2018-Jun-17 15:56N 40°41' W 074°05'1 1.6
2018-Jun-17 15:29N 40°41' W 074°04'2 4.8
2018-Jun-17 15:00N 40°40' W 074°01'1 1.1
2018-Jun-17 14:00N 40°40' W 073°60'6 0.2
2018-Jun-16 02:56N 40°39' W 074°07'3 5.0
2018-Jun-16 02:16N 40°38' W 074°12'0 0.1
2018-Jun-16 02:00N 40°38' W 074°12'2 3.6
2018-Jun-16 01:27N 40°39' W 074°09'3 5.7
2018-Jun-16 01:00N 40°39' W 074°06'2 4.7
2018-Jun-16 00:30N 40°38' W 074°03'3 5.2
2018-Jun-15 23:56N 40°35' W 074°01'45 4.3
2018-Jun-15 13:28N 39°50' W 074°04'3 4.2
2018-Jun-15 12:48N 39°48' W 074°03'1 4.5
2018-Jun-15 12:29N 39°46' W 074°03'2 4.6
2018-Jun-15 11:57N 39°44' W 074°03'2 4.0
2018-Jun-15 11:30N 39°42' W 074°04'2 3.8
2018-Jun-15 11:00N 39°40' W 074°05'2 4.2
2018-Jun-15 10:27N 39°38' W 074°06'2 4.3
2018-Jun-15 09:52N 39°36' W 074°08'2 4.1
2018-Jun-15 09:22N 39°34' W 074°09'2 4.1
2018-Jun-15 09:00N 39°33' W 074°10'10 4.0
2018-Jun-15 06:22N 39°25' W 074°18'2 3.9
2018-Jun-15 05:57N 39°23' W 074°19'2 3.9
2018-Jun-15 05:30N 39°22' W 074°21'2 4.1
2018-Jun-15 05:00N 39°21' W 074°23'2 4.1
2018-Jun-15 04:31N 39°19' W 074°25'2 4.2
2018-Jun-15 04:00N 39°18' W 074°27'2 4.1
2018-Jun-15 03:30N 39°17' W 074°29'2 4.1
2018-Jun-15 03:01N 39°15' W 074°31'2 4.4
2018-Jun-15 02:30N 39°14' W 074°33'2 4.3
2018-Jun-15 02:00N 39°12' W 074°35'2 4.1
2018-Jun-15 01:29N 39°10' W 074°37'2 4.0
2018-Jun-15 00:59N 39°09' W 074°38'25 3.0
2018-Jun-14 16:39N 39°04' W 075°10'1 5.2
2018-Jun-14 16:24N 39°05' W 075°11'2 4.7
2018-Jun-14 15:55N 39°07' W 075°13'2 4.4
2018-Jun-14 15:30N 39°09' W 075°14'2 3.9
2018-Jun-14 15:00N 39°10' W 075°16'2 3.2
2018-Jun-14 14:30N 39°12' W 075°17'1 2.6
2018-Jun-14 14:00N 39°13' W 075°18'1 2.9
2018-Jun-14 13:30N 39°14' W 075°18'1 2.9
2018-Jun-14 13:00N 39°15' W 075°20'1 1.9
2018-Jun-14 12:30N 39°16' W 075°21'2 3.7
2018-Jun-14 12:00N 39°17' W 075°22'2 4.9
2018-Jun-14 11:30N 39°19' W 075°24'3 5.8
2018-Jun-14 11:00N 39°21' W 075°27'4 7.1
2018-Jun-14 10:30N 39°24' W 075°30'3 7.0
2018-Jun-14 10:00N 39°26' W 075°33'3 6.7
2018-Jun-14 09:30N 39°30' W 075°34'4 7.1
2018-Jun-14 09:00N 39°33' W 075°33'4 7.2
2018-Jun-14 08:30N 39°36' W 075°34'3 6.2
2018-Jun-14 08:00N 39°39' W 075°33'3 6.5
2018-Jun-14 07:30N 39°42' W 075°31'3 5.7
2018-Jun-14 07:00N 39°45' W 075°30'2 4.7
2018-Jun-14 06:30N 39°47' W 075°28'2 4.0
2018-Jun-14 06:00N 39°48' W 075°26'2 3.6
2018-Jun-14 05:30N 39°49' W 075°24'1 2.2
2018-Jun-14 05:00N 39°50' W 075°23'0 0.3
2018-Jun-14 04:30N 39°50' W 075°23'0 0.1
2018-Jun-14 04:00N 39°50' W 075°23'0 0.0
2018-Jun-14 03:30N 39°50' W 075°23'0 0.0
2018-Jun-14 03:00N 39°50' W 075°23'0 0.0
2018-Jun-14 02:30N 39°50' W 075°23'0 0.0
2018-Jun-14 02:01N 39°50' W 075°23'0 0.0
2018-Jun-14 01:30N 39°50' W 075°23'0 0.0
2018-Jun-14 01:00N 39°50' W 075°23'0 0.0
2018-Jun-14 00:30N 39°50' W 075°23'0 0.0
2018-Jun-14 00:00N 39°50' W 075°23'0 0.0
2018-Jun-13 23:30N 39°50' W 075°23'0 0.0
2018-Jun-13 23:00N 39°50' W 075°23'0 0.0
2018-Jun-13 22:30N 39°50' W 075°23'0 0.0
2018-Jun-13 22:00N 39°50' W 075°23'0 0.1
2018-Jun-13 21:30N 39°50' W 075°23'0 0.0
2018-Jun-13 21:00N 39°50' W 075°23'0 0.0
2018-Jun-13 20:30N 39°50' W 075°23'0 0.0
2018-Jun-13 20:00N 39°50' W 075°23'0 0.0
2018-Jun-13 19:30N 39°50' W 075°23'0 0.0
2018-Jun-13 19:00N 39°50' W 075°23'0 0.0
2018-Jun-13 18:30N 39°50' W 075°23'1 2.1
2018-Jun-13 18:00N 39°50' W 075°22'0 0.5
2018-Jun-13 17:30N 39°50' W 075°22'0 0.1
2018-Jun-13 17:00N 39°50' W 075°22'0 0.1
2018-Jun-13 16:30N 39°50' W 075°22'0 0.0
2018-Jun-13 16:00N 39°50' W 075°22'0 0.0
2018-Jun-13 15:30N 39°50' W 075°22'0 0.0
2018-Jun-13 15:00N 39°50' W 075°22'0 0.0
2018-Jun-13 14:30N 39°50' W 075°22'0 0.0
2018-Jun-13 14:00N 39°50' W 075°22'0 0.0
2018-Jun-13 13:30N 39°50' W 075°22'0 0.0
2018-Jun-13 13:00N 39°50' W 075°22'0 0.0
2018-Jun-13 12:30N 39°50' W 075°22'0 0.0
2018-Jun-13 12:00N 39°50' W 075°22'0 0.0
2018-Jun-13 11:30N 39°50' W 075°22'0 0.0
2018-Jun-13 11:00N 39°50' W 075°22'0 0.0
2018-Jun-13 10:30N 39°50' W 075°22'0 0.0
2018-Jun-13 10:00N 39°50' W 075°22'0 0.0
2018-Jun-13 09:30N 39°50' W 075°22'0 0.0
2018-Jun-13 09:00N 39°50' W 075°22'0 0.0
2018-Jun-13 08:30N 39°50' W 075°22'0 0.0
2018-Jun-13 08:00N 39°50' W 075°22'0 0.0
2018-Jun-13 07:30N 39°50' W 075°22'0 0.0
2018-Jun-13 07:00N 39°50' W 075°22'0 0.0
2018-Jun-13 06:30N 39°50' W 075°22'0 0.0
2018-Jun-13 06:00N 39°50' W 075°22'0 0.0
2018-Jun-13 05:30N 39°50' W 075°22'0 0.0
2018-Jun-13 05:00N 39°50' W 075°22'0 0.0
2018-Jun-13 04:30N 39°50' W 075°22'0 0.0
2018-Jun-13 04:00N 39°50' W 075°22'0 0.0
2018-Jun-13 03:30N 39°50' W 075°22'0 0.0
2018-Jun-13 03:00N 39°50' W 075°22'1 2.5
2018-Jun-13 02:30N 39°50' W 075°23'0 0.0
2018-Jun-13 02:00N 39°50' W 075°23'0 0.0
2018-Jun-13 01:30N 39°50' W 075°23'0 0.0
2018-Jun-13 01:00N 39°50' W 075°23'1 1.9
2018-Jun-13 00:30N 39°50' W 075°22'0 0.8
2018-Jun-13 00:00N 39°50' W 075°22'0 0.0
2018-Jun-12 23:30N 39°50' W 075°22'0 0.0
2018-Jun-12 23:00N 39°50' W 075°22'0 0.0
2018-Jun-12 22:30N 39°50' W 075°22'0 0.0
2018-Jun-12 22:00N 39°50' W 075°22'0 0.0
2018-Jun-12 21:30N 39°50' W 075°22'0 0.0
2018-Jun-12 21:00N 39°50' W 075°22'0 0.0
2018-Jun-12 20:30N 39°50' W 075°22'0 0.0
2018-Jun-12 20:00N 39°50' W 075°22'0 0.0
2018-Jun-12 19:30N 39°50' W 075°22'0 0.0
2018-Jun-12 19:00N 39°50' W 075°22'0 0.0
2018-Jun-12 18:30N 39°50' W 075°22'0 0.0
2018-Jun-12 18:00N 39°50' W 075°22'0 0.0
2018-Jun-12 17:30N 39°50' W 075°22'0 0.0
2018-Jun-12 17:00N 39°50' W 075°22'0 0.0
2018-Jun-12 16:30N 39°50' W 075°22'0 0.0
2018-Jun-12 16:00N 39°50' W 075°22'0 0.0
2018-Jun-12 15:30N 39°50' W 075°22'0 0.0
2018-Jun-12 15:00N 39°50' W 075°22'0 0.0
2018-Jun-12 14:31N 39°50' W 075°22'0 0.0
2018-Jun-12 14:00N 39°50' W 075°22'0 0.0
2018-Jun-12 13:31N 39°50' W 075°22'0 0.0
2018-Jun-12 13:01N 39°50' W 075°22'0 0.0
2018-Jun-12 12:30N 39°50' W 075°22'0 0.0
2018-Jun-12 12:00N 39°50' W 075°22'0 0.0
2018-Jun-12 11:30N 39°50' W 075°22'0 0.0
2018-Jun-12 11:00N 39°50' W 075°22'0 0.0
2018-Jun-12 10:30N 39°50' W 075°22'0 0.0
2018-Jun-12 10:00N 39°50' W 075°22'0 0.0
2018-Jun-12 09:31N 39°50' W 075°22'0 0.0
2018-Jun-12 09:01N 39°50' W 075°22'0 0.0
2018-Jun-12 08:31N 39°50' W 075°22'0 0.0
2018-Jun-12 08:00N 39°50' W 075°22'0 0.0
2018-Jun-12 07:31N 39°50' W 075°22'0 0.0
2018-Jun-12 07:01N 39°50' W 075°22'0 0.0
2018-Jun-12 06:30N 39°50' W 075°22'0 0.0
2018-Jun-12 06:00N 39°50' W 075°22'0 0.0
2018-Jun-12 05:31N 39°50' W 075°22'0 0.0
2018-Jun-12 05:00N 39°50' W 075°22'0 0.0
2018-Jun-12 04:30N 39°50' W 075°22'0 0.0
2018-Jun-12 04:00N 39°50' W 075°22'0 0.0
2018-Jun-12 03:30N 39°50' W 075°22'0 0.0
2018-Jun-12 03:01N 39°50' W 075°22'0 0.0
2018-Jun-12 02:30N 39°50' W 075°22'0 0.0
2018-Jun-12 02:00N 39°50' W 075°22'0 0.0
2018-Jun-12 01:30N 39°50' W 075°22'0 0.0
2018-Jun-12 01:00N 39°50' W 075°22'0 0.0
2018-Jun-12 00:30N 39°50' W 075°22'0 0.0
2018-Jun-12 00:00N 39°50' W 075°22'0 0.0
2018-Jun-11 23:30N 39°50' W 075°22'0 0.0
2018-Jun-11 23:00N 39°50' W 075°22'0 0.0
2018-Jun-11 22:30N 39°50' W 075°22'0 0.0
2018-Jun-11 22:00N 39°50' W 075°22'0 0.0
2018-Jun-11 21:30N 39°50' W 075°22'0 0.0
2018-Jun-11 21:00N 39°50' W 075°22'0 0.0
2018-Jun-11 20:30N 39°50' W 075°22'0 0.0
2018-Jun-11 20:01N 39°50' W 075°22'0 0.0
2018-Jun-11 19:30N 39°50' W 075°22'0 0.0
2018-Jun-11 19:00N 39°50' W 075°22'0 0.0
2018-Jun-11 18:30N 39°50' W 075°22'0 0.0
2018-Jun-11 18:00N 39°50' W 075°22'0 0.0
2018-Jun-11 17:30N 39°50' W 075°22'0 0.0
2018-Jun-11 17:00N 39°50' W 075°22'0 0.0
2018-Jun-11 16:30N 39°50' W 075°22'0 0.0
2018-Jun-11 16:00N 39°50' W 075°22'0 0.0
2018-Jun-11 15:30N 39°50' W 075°22'0 0.0
2018-Jun-11 15:00N 39°50' W 075°22'0 0.0
2018-Jun-11 14:30N 39°50' W 075°22'0 0.0
2018-Jun-11 14:00N 39°50' W 075°22'0 0.0
2018-Jun-11 13:30N 39°50' W 075°22'0 0.0
2018-Jun-11 13:00N 39°50' W 075°22'0 0.0
2018-Jun-11 12:30N 39°50' W 075°22'0 0.0
2018-Jun-11 11:59N 39°50' W 075°22'0 0.0
2018-Jun-11 11:30N 39°50' W 075°22'1 2.5
2018-Jun-11 11:00N 39°50' W 075°23'0 0.0
2018-Jun-11 10:31N 39°50' W 075°23'0 0.0
2018-Jun-11 10:00N 39°50' W 075°23'0 0.0
2018-Jun-11 09:30N 39°50' W 075°23'0 0.0
2018-Jun-11 09:00N 39°50' W 075°23'0 0.0
2018-Jun-11 08:30N 39°50' W 075°23'0 0.0
2018-Jun-11 08:00N 39°50' W 075°23'0 0.0
2018-Jun-11 07:30N 39°50' W 075°23'0 0.0
2018-Jun-11 07:00N 39°50' W 075°23'0 0.0
2018-Jun-11 06:30N 39°50' W 075°23'0 0.0
2018-Jun-11 06:00N 39°50' W 075°23'0 0.0
2018-Jun-11 05:30N 39°50' W 075°23'0 0.0
2018-Jun-11 05:00N 39°50' W 075°23'0 0.0
2018-Jun-11 04:30N 39°50' W 075°23'0 0.0
2018-Jun-11 04:00N 39°50' W 075°23'0 0.0
2018-Jun-11 03:30N 39°50' W 075°23'0 0.0
2018-Jun-11 03:00N 39°50' W 075°23'2 3.8
2018-Jun-11 02:26N 39°48' W 075°25'3 6.0
2018-Jun-11 01:55N 39°46' W 075°28'2 4.7
2018-Jun-11 01:27N 39°44' W 075°30'4 8.2
2018-Jun-11 01:00N 39°41' W 075°31'1 2.5
2018-Jun-11 00:30N 39°40' W 075°32'4 7.8
2018-Jun-11 00:00N 39°36' W 075°34'4 8.5
2018-Jun-10 23:29N 39°32' W 075°33'915.0
2018-Jun-10 22:53N 39°23' W 075°29'3 6.2
2018-Jun-10 22:27N 39°21' W 075°27'510.7
2018-Jun-10 21:56N 39°17' W 075°22'4 8.1
2018-Jun-10 21:30N 39°15' W 075°19'4 6.4
2018-Jun-10 20:55N 39°12' W 075°16'56 4.9
2018-Jun-10 09:28N 39°34' W 074°10'3 6.9
2018-Jun-10 08:59N 39°37' W 074°09'4 6.8
2018-Jun-10 08:25N 39°41' W 074°07'53 6.9
2018-Jun-10 00:48N 40°33' W 074°01'2 8.1
2018-Jun-10 00:30N 40°36' W 074°02'4 7.7
2018-Jun-10 00:00N 40°39' W 074°05'1 0.0
2018-Jun-07 21:16N 40°39' W 074°05'2 7.3
2018-Jun-07 21:00N 40°40' W 074°03'3 5.3
2018-Jun-07 20:30N 40°40' W 073°60'0 0.2
2018-Jun-07 20:00N 40°41' W 073°60'0 0.1
2018-Jun-07 19:30N 40°40' W 073°60'1 2.5
2018-Jun-07 19:00N 40°40' W 074°01'3 5.6
2018-Jun-07 18:30N 40°41' W 074°04'  

Dump ship's entire track history